KOLF/OLF METAR and TAF weather

Enter ICAO airport designator
Station Type Date Time Source
KOLF METAR 2019/10/14 05:53 UTC NOAA

KOLF 140553Z AUTO 07004KT 10SM CLR M02/M06 A2982 RMK AO2 SLP117 T10171061 10100 21022 58008 $


Station Type Date Time Source
KOLF Decoded METAR 2019/10/14 05:53 UTC NOAA

WOLF POINT CLAYTON AIRPORT, MT, United States (KOLF) 48-06N 105-35W 604M
Oct 14, 2019 - 01:53 AM EDT / 2019.10.14 0553 UTC
Wind: from the ENE (070 degrees) at 5 MPH (4 KT):0
Visibility: 10 mile(s):0
Sky conditions: clear
Temperature: 28.9 F (-1.7 C)
Windchill: 23 F (-5 C):1
Dew Point: 21.0 F (-6.1 C)
Relative Humidity: 71%
Pressure (altimeter): 29.82 in. Hg (1009 hPa)
Pressure tendency: 0.02 inches (0.8 hPa) lower than three hours ago
ob: KOLF 140553Z AUTO 07004KT 10SM CLR M02/M06 A2982 RMK AO2 SLP117 T10171061 10100 21022 58008
cycle: 6

Station Type Date Time Source
KOLF TAF 2019/10/14 06:22 UTC NOAA

TAF KOLF 140520Z 1406/1506 VRB03KT P6SM SCT120
FM141900 27014KT P6SM SCT045
FM142100 29016G26KT P6SM BKN025

Example: see airport list